sensor_id;sensor_type;location;lat;lon;timestamp;P1;durP1;ratioP1;P2;durP2;ratioP2
3068;SDS011;1545;51.728;8.796;2022-08-03T00:01:32;10.60;;;8.93;;
3068;SDS011;1545;51.728;8.796;2022-08-03T00:03:58;9.43;;;8.23;;
3068;SDS011;1545;51.728;8.796;2022-08-03T00:06:23;12.33;;;9.00;;
3068;SDS011;1545;51.728;8.796;2022-08-03T00:08:49;10.83;;;8.93;;
3068;SDS011;1545;51.728;8.796;2022-08-03T00:11:15;12.97;;;8.70;;
3068;SDS011;1545;51.728;8.796;2022-08-03T00:13:40;12.60;;;8.60;;
3068;SDS011;1545;51.728;8.796;2022-08-03T00:16:06;14.43;;;9.20;;
3068;SDS011;1545;51.728;8.796;2022-08-03T00:18:31;16.60;;;9.13;;
3068;SDS011;1545;51.728;8.796;2022-08-03T00:20:57;15.20;;;8.90;;
3068;SDS011;1545;51.728;8.796;2022-08-03T00:23:22;12.37;;;9.10;;
3068;SDS011;1545;51.728;8.796;2022-08-03T00:25:48;10.60;;;9.00;;
3068;SDS011;1545;51.728;8.796;2022-08-03T00:28:14;12.53;;;8.93;;
3068;SDS011;1545;51.728;8.796;2022-08-03T00:30:39;12.67;;;8.00;;
3068;SDS011;1545;51.728;8.796;2022-08-03T00:33:05;10.10;;;7.77;;
3068;SDS011;1545;51.728;8.796;2022-08-03T00:35:30;11.43;;;8.20;;
3068;SDS011;1545;51.728;8.796;2022-08-03T00:37:56;16.47;;;8.30;;
3068;SDS011;1545;51.728;8.796;2022-08-03T00:40:22;13.20;;;8.97;;
3068;SDS011;1545;51.728;8.796;2022-08-03T00:42:51;11.73;;;8.63;;
3068;SDS011;1545;51.728;8.796;2022-08-03T00:45:24;9.83;;;8.47;;
3068;SDS011;1545;51.728;8.796;2022-08-03T00:47:51;11.63;;;8.33;;
3068;SDS011;1545;51.728;8.796;2022-08-03T00:50:18;13.97;;;8.30;;
3068;SDS011;1545;51.728;8.796;2022-08-03T00:52:46;10.33;;;8.37;;
3068;SDS011;1545;51.728;8.796;2022-08-03T00:55:13;9.87;;;8.00;;
3068;SDS011;1545;51.728;8.796;2022-08-03T00:57:39;10.97;;;8.10;;
3068;SDS011;1545;51.728;8.796;2022-08-03T01:00:07;9.07;;;7.53;;
3068;SDS011;1545;51.728;8.796;2022-08-03T01:02:34;9.27;;;7.70;;
3068;SDS011;1545;51.728;8.796;2022-08-03T01:05:00;9.57;;;7.90;;
3068;SDS011;1545;51.728;8.796;2022-08-03T01:18:51;8.87;;;7.13;;
3068;SDS011;1545;51.728;8.796;2022-08-03T01:21:30;19.13;;;6.97;;
3068;SDS011;1545;51.728;8.796;2022-08-03T01:32:22;11.20;;;6.80;;
3068;SDS011;1545;51.728;8.796;2022-08-03T01:35:03;11.07;;;7.00;;
3068;SDS011;1545;51.728;8.796;2022-08-03T01:37:37;7.93;;;6.27;;
3068;SDS011;1545;51.728;8.796;2022-08-03T01:40:07;8.97;;;6.73;;
3068;SDS011;1545;51.728;8.796;2022-08-03T01:42:35;13.53;;;7.20;;
3068;SDS011;1545;51.728;8.796;2022-08-03T01:45:02;14.40;;;6.70;;
3068;SDS011;1545;51.728;8.796;2022-08-03T01:47:29;12.83;;;6.90;;
3068;SDS011;1545;51.728;8.796;2022-08-03T01:49:56;14.03;;;6.77;;
3068;SDS011;1545;51.728;8.796;2022-08-03T01:52:24;11.03;;;7.03;;
3068;SDS011;1545;51.728;8.796;2022-08-03T01:54:51;9.77;;;6.87;;
3068;SDS011;1545;51.728;8.796;2022-08-03T01:57:18;11.20;;;7.30;;
3068;SDS011;1545;51.728;8.796;2022-08-03T01:59:45;10.90;;;6.73;;
3068;SDS011;1545;51.728;8.796;2022-08-03T02:02:13;8.30;;;6.90;;
3068;SDS011;1545;51.728;8.796;2022-08-03T02:04:41;9.07;;;6.80;;
3068;SDS011;1545;51.728;8.796;2022-08-03T02:07:08;9.87;;;7.50;;
3068;SDS011;1545;51.728;8.796;2022-08-03T02:09:39;11.87;;;6.60;;
3068;SDS011;1545;51.728;8.796;2022-08-03T02:12:08;12.63;;;6.83;;
3068;SDS011;1545;51.728;8.796;2022-08-03T02:14:36;10.83;;;6.70;;
3068;SDS011;1545;51.728;8.796;2022-08-03T02:17:05;12.13;;;7.20;;
3068;SDS011;1545;51.728;8.796;2022-08-03T02:19:32;18.90;;;7.40;;
3068;SDS011;1545;51.728;8.796;2022-08-03T02:21:58;11.80;;;7.23;;
3068;SDS011;1545;51.728;8.796;2022-08-03T02:24:24;10.03;;;7.77;;
3068;SDS011;1545;51.728;8.796;2022-08-03T02:26:51;10.83;;;7.17;;
3068;SDS011;1545;51.728;8.796;2022-08-03T02:29:20;12.33;;;7.10;;
3068;SDS011;1545;51.728;8.796;2022-08-03T02:31:49;8.67;;;7.27;;
3068;SDS011;1545;51.728;8.796;2022-08-03T02:34:15;9.23;;;6.93;;
3068;SDS011;1545;51.728;8.796;2022-08-03T02:36:45;10.80;;;6.67;;
3068;SDS011;1545;51.728;8.796;2022-08-03T02:39:14;10.77;;;7.43;;
3068;SDS011;1545;51.728;8.796;2022-08-03T02:41:47;7.50;;;6.53;;
3068;SDS011;1545;51.728;8.796;2022-08-03T02:44:15;8.60;;;7.00;;
3068;SDS011;1545;51.728;8.796;2022-08-03T02:46:45;12.57;;;7.27;;
3068;SDS011;1545;51.728;8.796;2022-08-03T02:49:13;11.97;;;7.10;;
3068;SDS011;1545;51.728;8.796;2022-08-03T02:51:42;11.93;;;7.33;;
3068;SDS011;1545;51.728;8.796;2022-08-03T02:54:11;9.10;;;6.23;;
3068;SDS011;1545;51.728;8.796;2022-08-03T02:56:41;13.60;;;7.00;;
3068;SDS011;1545;51.728;8.796;2022-08-03T02:59:08;11.70;;;7.07;;
3068;SDS011;1545;51.728;8.796;2022-08-03T03:01:36;14.37;;;9.13;;
3068;SDS011;1545;51.728;8.796;2022-08-03T03:04:02;13.83;;;8.90;;
3068;SDS011;1545;51.728;8.796;2022-08-03T03:06:30;19.77;;;7.77;;
3068;SDS011;1545;51.728;8.796;2022-08-03T03:08:56;13.83;;;7.70;;
3068;SDS011;1545;51.728;8.796;2022-08-03T03:11:22;10.03;;;7.03;;
3068;SDS011;1545;51.728;8.796;2022-08-03T03:13:50;13.20;;;7.63;;
3068;SDS011;1545;51.728;8.796;2022-08-03T03:16:16;15.83;;;7.80;;
3068;SDS011;1545;51.728;8.796;2022-08-03T03:18:43;10.87;;;7.03;;
3068;SDS011;1545;51.728;8.796;2022-08-03T03:21:10;10.67;;;7.70;;
3068;SDS011;1545;51.728;8.796;2022-08-03T03:23:37;12.63;;;7.37;;
3068;SDS011;1545;51.728;8.796;2022-08-03T03:26:05;12.00;;;7.33;;
3068;SDS011;1545;51.728;8.796;2022-08-03T03:28:31;19.77;;;7.73;;
3068;SDS011;1545;51.728;8.796;2022-08-03T03:30:58;8.87;;;6.50;;
3068;SDS011;1545;51.728;8.796;2022-08-03T03:33:24;11.20;;;6.77;;
3068;SDS011;1545;51.728;8.796;2022-08-03T03:35:51;12.60;;;7.70;;
3068;SDS011;1545;51.728;8.796;2022-08-03T03:38:17;14.50;;;8.30;;
3068;SDS011;1545;51.728;8.796;2022-08-03T03:40:43;12.83;;;7.77;;
3068;SDS011;1545;51.728;8.796;2022-08-03T03:43:10;9.33;;;7.13;;
3068;SDS011;1545;51.728;8.796;2022-08-03T03:45:36;9.17;;;6.97;;
3068;SDS011;1545;51.728;8.796;2022-08-03T03:48:04;13.93;;;7.77;;
3068;SDS011;1545;51.728;8.796;2022-08-03T03:50:31;11.90;;;7.60;;
3068;SDS011;1545;51.728;8.796;2022-08-03T03:52:58;12.50;;;7.77;;
3068;SDS011;1545;51.728;8.796;2022-08-03T03:55:23;27.67;;;7.77;;
3068;SDS011;1545;51.728;8.796;2022-08-03T03:57:49;12.30;;;7.80;;
3068;SDS011;1545;51.728;8.796;2022-08-03T04:00:15;13.03;;;7.70;;
3068;SDS011;1545;51.728;8.796;2022-08-03T04:02:41;14.80;;;8.57;;
3068;SDS011;1545;51.728;8.796;2022-08-03T04:05:07;10.10;;;8.37;;
3068;SDS011;1545;51.728;8.796;2022-08-03T04:08:08;10.63;;;8.20;;
3068;SDS011;1545;51.728;8.796;2022-08-03T04:16:15;20.73;;;8.77;;
3068;SDS011;1545;51.728;8.796;2022-08-03T04:18:45;19.10;;;8.03;;
3068;SDS011;1545;51.728;8.796;2022-08-03T04:21:16;19.73;;;7.77;;
3068;SDS011;1545;51.728;8.796;2022-08-03T04:23:45;15.40;;;7.93;;
3068;SDS011;1545;51.728;8.796;2022-08-03T04:26:14;11.77;;;6.70;;
3068;SDS011;1545;51.728;8.796;2022-08-03T04:28:42;18.77;;;7.20;;
3068;SDS011;1545;51.728;8.796;2022-08-03T04:31:11;13.30;;;7.43;;
3068;SDS011;1545;51.728;8.796;2022-08-03T04:33:38;12.17;;;7.00;;
3068;SDS011;1545;51.728;8.796;2022-08-03T04:36:08;10.07;;;6.53;;
3068;SDS011;1545;51.728;8.796;2022-08-03T04:38:36;10.53;;;7.00;;
3068;SDS011;1545;51.728;8.796;2022-08-03T04:41:08;13.40;;;6.60;;
3068;SDS011;1545;51.728;8.796;2022-08-03T04:43:34;11.13;;;6.60;;
3068;SDS011;1545;51.728;8.796;2022-08-03T04:46:03;9.23;;;5.87;;
3068;SDS011;1545;51.728;8.796;2022-08-03T04:48:30;23.53;;;7.23;;
3068;SDS011;1545;51.728;8.796;2022-08-03T04:50:56;8.37;;;6.43;;
3068;SDS011;1545;51.728;8.796;2022-08-03T04:53:22;12.73;;;6.57;;
3068;SDS011;1545;51.728;8.796;2022-08-03T04:55:50;11.07;;;7.10;;
3068;SDS011;1545;51.728;8.796;2022-08-03T04:58:15;9.73;;;6.37;;
3068;SDS011;1545;51.728;8.796;2022-08-03T05:00:41;11.87;;;6.00;;
3068;SDS011;1545;51.728;8.796;2022-08-03T05:03:07;9.13;;;5.93;;
3068;SDS011;1545;51.728;8.796;2022-08-03T05:05:33;9.87;;;5.70;;
3068;SDS011;1545;51.728;8.796;2022-08-03T05:07:58;6.73;;;5.17;;
3068;SDS011;1545;51.728;8.796;2022-08-03T05:10:24;15.30;;;6.37;;
3068;SDS011;1545;51.728;8.796;2022-08-03T05:12:49;13.03;;;6.40;;
3068;SDS011;1545;51.728;8.796;2022-08-03T05:15:16;8.87;;;5.77;;
3068;SDS011;1545;51.728;8.796;2022-08-03T05:17:41;15.07;;;7.00;;
3068;SDS011;1545;51.728;8.796;2022-08-03T05:20:07;15.17;;;6.10;;
3068;SDS011;1545;51.728;8.796;2022-08-03T05:22:33;10.90;;;6.30;;
3068;SDS011;1545;51.728;8.796;2022-08-03T05:24:59;21.50;;;5.97;;
3068;SDS011;1545;51.728;8.796;2022-08-03T05:27:26;13.47;;;5.20;;
3068;SDS011;1545;51.728;8.796;2022-08-03T05:29:51;14.43;;;5.23;;
3068;SDS011;1545;51.728;8.796;2022-08-03T05:32:17;10.63;;;5.10;;
3068;SDS011;1545;51.728;8.796;2022-08-03T05:34:42;8.77;;;4.23;;
3068;SDS011;1545;51.728;8.796;2022-08-03T05:37:08;13.10;;;4.27;;
3068;SDS011;1545;51.728;8.796;2022-08-03T05:39:34;7.27;;;3.93;;
3068;SDS011;1545;51.728;8.796;2022-08-03T05:42:00;13.98;;;3.65;;
3068;SDS011;1545;51.728;8.796;2022-08-03T05:44:26;7.57;;;3.92;;
3068;SDS011;1545;51.728;8.796;2022-08-03T05:46:51;10.50;;;4.45;;
3068;SDS011;1545;51.728;8.796;2022-08-03T05:49:17;8.30;;;3.42;;
3068;SDS011;1545;51.728;8.796;2022-08-03T05:51:44;9.95;;;3.80;;
3068;SDS011;1545;51.728;8.796;2022-08-03T05:54:09;7.35;;;3.75;;
3068;SDS011;1545;51.728;8.796;2022-08-03T05:56:35;8.75;;;4.07;;
3068;SDS011;1545;51.728;8.796;2022-08-03T05:59:01;10.15;;;4.00;;
3068;SDS011;1545;51.728;8.796;2022-08-03T06:01:26;11.40;;;4.25;;
3068;SDS011;1545;51.728;8.796;2022-08-03T06:03:52;10.77;;;4.03;;
3068;SDS011;1545;51.728;8.796;2022-08-03T06:06:17;8.45;;;3.33;;
3068;SDS011;1545;51.728;8.796;2022-08-03T06:08:43;8.73;;;3.30;;
3068;SDS011;1545;51.728;8.796;2022-08-03T06:11:10;6.43;;;3.28;;
3068;SDS011;1545;51.728;8.796;2022-08-03T06:13:36;8.57;;;3.45;;
3068;SDS011;1545;51.728;8.796;2022-08-03T06:16:02;7.82;;;3.10;;
3068;SDS011;1545;51.728;8.796;2022-08-03T06:18:27;5.93;;;2.80;;
3068;SDS011;1545;51.728;8.796;2022-08-03T06:20:53;10.90;;;3.30;;
3068;SDS011;1545;51.728;8.796;2022-08-03T06:23:19;14.73;;;3.53;;
3068;SDS011;1545;51.728;8.796;2022-08-03T06:25:44;10.48;;;3.38;;
3068;SDS011;1545;51.728;8.796;2022-08-03T06:28:10;3.60;;;2.70;;
3068;SDS011;1545;51.728;8.796;2022-08-03T06:30:38;6.50;;;3.30;;
3068;SDS011;1545;51.728;8.796;2022-08-03T06:33:04;8.85;;;3.60;;
3068;SDS011;1545;51.728;8.796;2022-08-03T06:35:29;4.88;;;2.88;;
3068;SDS011;1545;51.728;8.796;2022-08-03T06:37:55;6.82;;;2.88;;
3068;SDS011;1545;51.728;8.796;2022-08-03T06:40:21;4.55;;;3.00;;
3068;SDS011;1545;51.728;8.796;2022-08-03T06:42:53;9.20;;;3.28;;
3068;SDS011;1545;51.728;8.796;2022-08-03T06:45:19;5.10;;;2.78;;
3068;SDS011;1545;51.728;8.796;2022-08-03T06:47:45;4.40;;;2.88;;
3068;SDS011;1545;51.728;8.796;2022-08-03T06:50:10;6.38;;;3.50;;
3068;SDS011;1545;51.728;8.796;2022-08-03T06:52:36;7.47;;;3.20;;
3068;SDS011;1545;51.728;8.796;2022-08-03T06:55:01;6.90;;;2.88;;
3068;SDS011;1545;51.728;8.796;2022-08-03T06:57:27;7.40;;;3.03;;
3068;SDS011;1545;51.728;8.796;2022-08-03T06:59:53;9.77;;;2.90;;
3068;SDS011;1545;51.728;8.796;2022-08-03T07:02:20;3.75;;;2.70;;
3068;SDS011;1545;51.728;8.796;2022-08-03T07:04:47;4.65;;;2.75;;
3068;SDS011;1545;51.728;8.796;2022-08-03T07:07:13;8.93;;;2.65;;
3068;SDS011;1545;51.728;8.796;2022-08-03T07:09:39;2.97;;;2.35;;
3068;SDS011;1545;51.728;8.796;2022-08-03T07:12:04;3.72;;;2.47;;
3068;SDS011;1545;51.728;8.796;2022-08-03T07:14:30;6.22;;;2.55;;
3068;SDS011;1545;51.728;8.796;2022-08-03T07:16:56;19.27;;;2.65;;
3068;SDS011;1545;51.728;8.796;2022-08-03T07:19:21;10.90;;;2.90;;
3068;SDS011;1545;51.728;8.796;2022-08-03T07:21:47;4.07;;;2.63;;
3068;SDS011;1545;51.728;8.796;2022-08-03T07:24:12;7.28;;;2.60;;
3068;SDS011;1545;51.728;8.796;2022-08-03T07:26:38;9.20;;;2.70;;
3068;SDS011;1545;51.728;8.796;2022-08-03T07:29:04;8.70;;;2.53;;
3068;SDS011;1545;51.728;8.796;2022-08-03T07:31:29;4.90;;;2.80;;
3068;SDS011;1545;51.728;8.796;2022-08-03T07:33:55;6.15;;;2.90;;
3068;SDS011;1545;51.728;8.796;2022-08-03T07:36:20;6.18;;;2.70;;
3068;SDS011;1545;51.728;8.796;2022-08-03T07:38:46;6.40;;;3.00;;
3068;SDS011;1545;51.728;8.796;2022-08-03T07:41:12;3.85;;;2.50;;
3068;SDS011;1545;51.728;8.796;2022-08-03T07:43:37;4.22;;;2.80;;
3068;SDS011;1545;51.728;8.796;2022-08-03T07:46:03;9.40;;;2.92;;
3068;SDS011;1545;51.728;8.796;2022-08-03T07:48:28;4.18;;;2.50;;
3068;SDS011;1545;51.728;8.796;2022-08-03T07:50:54;6.38;;;2.50;;
3068;SDS011;1545;51.728;8.796;2022-08-03T07:53:19;9.52;;;2.78;;
3068;SDS011;1545;51.728;8.796;2022-08-03T07:55:45;9.30;;;3.25;;
3068;SDS011;1545;51.728;8.796;2022-08-03T07:58:10;3.78;;;2.78;;
3068;SDS011;1545;51.728;8.796;2022-08-03T08:00:39;11.35;;;3.03;;
3068;SDS011;1545;51.728;8.796;2022-08-03T08:03:08;5.63;;;3.03;;
3068;SDS011;1545;51.728;8.796;2022-08-03T08:05:35;4.57;;;2.60;;
3068;SDS011;1545;51.728;8.796;2022-08-03T08:08:01;3.97;;;2.80;;
3068;SDS011;1545;51.728;8.796;2022-08-03T08:10:27;7.75;;;2.78;;
3068;SDS011;1545;51.728;8.796;2022-08-03T08:12:54;4.97;;;2.80;;
3068;SDS011;1545;51.728;8.796;2022-08-03T08:15:20;3.75;;;2.53;;
3068;SDS011;1545;51.728;8.796;2022-08-03T08:17:50;10.13;;;2.75;;
3068;SDS011;1545;51.728;8.796;2022-08-03T08:20:19;6.90;;;2.72;;
3068;SDS011;1545;51.728;8.796;2022-08-03T08:22:46;5.10;;;2.55;;
3068;SDS011;1545;51.728;8.796;2022-08-03T08:25:11;4.63;;;2.88;;
3068;SDS011;1545;51.728;8.796;2022-08-03T08:27:44;4.28;;;2.80;;
3068;SDS011;1545;51.728;8.796;2022-08-03T08:30:12;6.50;;;2.95;;
3068;SDS011;1545;51.728;8.796;2022-08-03T08:32:39;8.30;;;2.97;;
3068;SDS011;1545;51.728;8.796;2022-08-03T08:35:05;11.45;;;2.83;;
3068;SDS011;1545;51.728;8.796;2022-08-03T08:37:33;7.43;;;3.33;;
3068;SDS011;1545;51.728;8.796;2022-08-03T08:39:58;6.78;;;2.97;;
3068;SDS011;1545;51.728;8.796;2022-08-03T08:42:25;8.50;;;2.80;;
3068;SDS011;1545;51.728;8.796;2022-08-03T08:44:51;5.43;;;2.83;;
3068;SDS011;1545;51.728;8.796;2022-08-03T08:47:21;5.95;;;2.90;;
3068;SDS011;1545;51.728;8.796;2022-08-03T08:49:51;3.10;;;2.90;;
3068;SDS011;1545;51.728;8.796;2022-08-03T08:52:20;6.90;;;2.92;;
3068;SDS011;1545;51.728;8.796;2022-08-03T08:54:49;6.78;;;3.00;;
3068;SDS011;1545;51.728;8.796;2022-08-03T08:57:19;4.60;;;2.95;;
3068;SDS011;1545;51.728;8.796;2022-08-03T08:59:50;4.43;;;3.17;;
3068;SDS011;1545;51.728;8.796;2022-08-03T09:02:17;4.30;;;3.13;;
3068;SDS011;1545;51.728;8.796;2022-08-03T09:04:43;3.70;;;2.78;;
3068;SDS011;1545;51.728;8.796;2022-08-03T09:07:09;4.35;;;3.10;;
3068;SDS011;1545;51.728;8.796;2022-08-03T09:09:35;3.72;;;3.28;;
3068;SDS011;1545;51.728;8.796;2022-08-03T09:12:00;5.85;;;3.08;;
3068;SDS011;1545;51.728;8.796;2022-08-03T09:14:26;13.57;;;3.92;;
3068;SDS011;1545;51.728;8.796;2022-08-03T09:16:57;3.08;;;2.90;;
3068;SDS011;1545;51.728;8.796;2022-08-03T09:19:25;5.30;;;3.30;;
3068;SDS011;1545;51.728;8.796;2022-08-03T09:24:36;7.43;;;3.30;;
3068;SDS011;1545;51.728;8.796;2022-08-03T09:27:06;5.03;;;3.50;;
3068;SDS011;1545;51.728;8.796;2022-08-03T09:29:36;4.97;;;3.25;;
3068;SDS011;1545;51.728;8.796;2022-08-03T09:32:02;4.22;;;3.28;;
3068;SDS011;1545;51.728;8.796;2022-08-03T09:34:29;3.85;;;3.17;;
3068;SDS011;1545;51.728;8.796;2022-08-03T09:36:54;5.63;;;3.05;;
3068;SDS011;1545;51.728;8.796;2022-08-03T09:39:23;5.68;;;3.30;;
3068;SDS011;1545;51.728;8.796;2022-08-03T09:42:09;13.82;;;3.20;;
3068;SDS011;1545;51.728;8.796;2022-08-03T09:44:37;6.85;;;3.53;;
3068;SDS011;1545;51.728;8.796;2022-08-03T09:47:06;12.45;;;3.28;;
3068;SDS011;1545;51.728;8.796;2022-08-03T09:49:32;8.27;;;3.35;;
3068;SDS011;1545;51.728;8.796;2022-08-03T09:52:01;8.82;;;3.45;;
3068;SDS011;1545;51.728;8.796;2022-08-03T09:54:36;3.67;;;3.00;;
3068;SDS011;1545;51.728;8.796;2022-08-03T09:57:02;7.05;;;3.33;;
3068;SDS011;1545;51.728;8.796;2022-08-03T09:59:28;7.60;;;3.50;;
3068;SDS011;1545;51.728;8.796;2022-08-03T10:01:55;5.97;;;3.38;;
3068;SDS011;1545;51.728;8.796;2022-08-03T10:04:22;8.00;;;3.30;;
3068;SDS011;1545;51.728;8.796;2022-08-03T10:07:07;6.38;;;3.33;;
3068;SDS011;1545;51.728;8.796;2022-08-03T10:09:34;7.10;;;3.63;;
3068;SDS011;1545;51.728;8.796;2022-08-03T10:12:10;13.00;;;4.30;;
3068;SDS011;1545;51.728;8.796;2022-08-03T10:14:37;5.90;;;3.50;;
3068;SDS011;1545;51.728;8.796;2022-08-03T10:17:05;6.57;;;3.38;;
3068;SDS011;1545;51.728;8.796;2022-08-03T10:19:30;11.18;;;3.63;;
3068;SDS011;1545;51.728;8.796;2022-08-03T10:22:00;7.78;;;3.65;;
3068;SDS011;1545;51.728;8.796;2022-08-03T10:24:36;5.88;;;3.88;;
3068;SDS011;1545;51.728;8.796;2022-08-03T10:27:07;4.93;;;3.50;;
3068;SDS011;1545;51.728;8.796;2022-08-03T10:29:38;6.95;;;4.00;;
3068;SDS011;1545;51.728;8.796;2022-08-03T10:32:09;4.32;;;3.83;;
3068;SDS011;1545;51.728;8.796;2022-08-03T10:34:49;9.40;;;4.00;;
3068;SDS011;1545;51.728;8.796;2022-08-03T10:37:20;8.15;;;4.22;;
3068;SDS011;1545;51.728;8.796;2022-08-03T10:39:51;7.75;;;4.25;;
3068;SDS011;1545;51.728;8.796;2022-08-03T10:42:22;7.70;;;4.00;;
3068;SDS011;1545;51.728;8.796;2022-08-03T10:44:52;4.28;;;3.63;;
3068;SDS011;1545;51.728;8.796;2022-08-03T10:47:27;4.90;;;3.33;;
3068;SDS011;1545;51.728;8.796;2022-08-03T10:50:08;5.75;;;3.58;;
3068;SDS011;1545;51.728;8.796;2022-08-03T10:52:34;8.02;;;3.92;;
3068;SDS011;1545;51.728;8.796;2022-08-03T10:55:00;7.97;;;4.20;;
3068;SDS011;1545;51.728;8.796;2022-08-03T10:57:48;7.82;;;3.95;;
3068;SDS011;1545;51.728;8.796;2022-08-03T11:00:18;11.70;;;4.55;;
3068;SDS011;1545;51.728;8.796;2022-08-03T11:03:07;11.63;;;4.00;;
3068;SDS011;1545;51.728;8.796;2022-08-03T11:05:36;6.22;;;3.88;;
3068;SDS011;1545;51.728;8.796;2022-08-03T11:10:44;8.45;;;3.85;;
3068;SDS011;1545;51.728;8.796;2022-08-03T11:13:10;5.80;;;3.45;;
3068;SDS011;1545;51.728;8.796;2022-08-03T11:15:39;14.38;;;6.82;;
3068;SDS011;1545;51.728;8.796;2022-08-03T11:18:08;8.00;;;3.95;;
3068;SDS011;1545;51.728;8.796;2022-08-03T11:20:44;13.50;;;5.72;;
3068;SDS011;1545;51.728;8.796;2022-08-03T11:23:12;14.45;;;4.60;;
3068;SDS011;1545;51.728;8.796;2022-08-03T11:28:33;5.35;;;3.97;;
3068;SDS011;1545;51.728;8.796;2022-08-03T11:34:03;5.32;;;4.10;;
3068;SDS011;1545;51.728;8.796;2022-08-03T11:36:29;8.48;;;4.22;;
3068;SDS011;1545;51.728;8.796;2022-08-03T11:39:14;4.55;;;4.05;;
3068;SDS011;1545;51.728;8.796;2022-08-03T11:41:40;7.57;;;3.78;;
3068;SDS011;1545;51.728;8.796;2022-08-03T11:44:05;8.77;;;3.67;;
3068;SDS011;1545;51.728;8.796;2022-08-03T11:46:37;7.90;;;3.60;;
3068;SDS011;1545;51.728;8.796;2022-08-03T11:49:04;3.85;;;3.50;;
3068;SDS011;1545;51.728;8.796;2022-08-03T11:51:31;5.18;;;3.90;;
3068;SDS011;1545;51.728;8.796;2022-08-03T11:53:57;6.30;;;3.72;;
3068;SDS011;1545;51.728;8.796;2022-08-03T11:56:25;9.60;;;4.07;;
3068;SDS011;1545;51.728;8.796;2022-08-03T11:58:52;8.60;;;3.90;;
3068;SDS011;1545;51.728;8.796;2022-08-03T12:01:20;7.15;;;4.00;;
3068;SDS011;1545;51.728;8.796;2022-08-03T12:03:47;6.45;;;4.10;;
3068;SDS011;1545;51.728;8.796;2022-08-03T12:06:14;9.25;;;4.18;;
3068;SDS011;1545;51.728;8.796;2022-08-03T12:08:41;7.43;;;4.18;;
3068;SDS011;1545;51.728;8.796;2022-08-03T12:11:08;7.20;;;4.25;;
3068;SDS011;1545;51.728;8.796;2022-08-03T12:16:09;10.82;;;4.38;;
3068;SDS011;1545;51.728;8.796;2022-08-03T12:18:40;6.70;;;4.15;;
3068;SDS011;1545;51.728;8.796;2022-08-03T12:21:10;6.28;;;4.00;;
3068;SDS011;1545;51.728;8.796;2022-08-03T12:23:36;13.00;;;4.95;;
3068;SDS011;1545;51.728;8.796;2022-08-03T12:26:05;7.47;;;4.10;;
3068;SDS011;1545;51.728;8.796;2022-08-03T12:28:31;10.82;;;4.32;;
3068;SDS011;1545;51.728;8.796;2022-08-03T12:31:00;8.63;;;4.65;;
3068;SDS011;1545;51.728;8.796;2022-08-03T12:33:30;6.30;;;4.50;;
3068;SDS011;1545;51.728;8.796;2022-08-03T12:38:36;9.20;;;4.57;;
3068;SDS011;1545;51.728;8.796;2022-08-03T12:41:09;6.15;;;4.82;;
3068;SDS011;1545;51.728;8.796;2022-08-03T12:43:47;7.97;;;4.20;;
3068;SDS011;1545;51.728;8.796;2022-08-03T12:46:14;10.30;;;5.05;;
3068;SDS011;1545;51.728;8.796;2022-08-03T12:51:35;7.28;;;4.43;;
3068;SDS011;1545;51.728;8.796;2022-08-03T12:54:04;8.80;;;4.30;;
3068;SDS011;1545;51.728;8.796;2022-08-03T12:56:30;5.45;;;4.28;;
3068;SDS011;1545;51.728;8.796;2022-08-03T12:58:55;17.30;;;5.50;;
3068;SDS011;1545;51.728;8.796;2022-08-03T13:01:21;6.60;;;4.00;;
3068;SDS011;1545;51.728;8.796;2022-08-03T13:03:48;5.38;;;4.00;;
3068;SDS011;1545;51.728;8.796;2022-08-03T13:06:19;8.32;;;4.95;;
3068;SDS011;1545;51.728;8.796;2022-08-03T13:08:47;6.38;;;4.40;;
3068;SDS011;1545;51.728;8.796;2022-08-03T13:11:20;4.88;;;3.50;;
3068;SDS011;1545;51.728;8.796;2022-08-03T13:13:51;12.13;;;4.90;;
3068;SDS011;1545;51.728;8.796;2022-08-03T13:16:17;9.38;;;4.65;;
3068;SDS011;1545;51.728;8.796;2022-08-03T13:18:43;11.25;;;4.32;;
3068;SDS011;1545;51.728;8.796;2022-08-03T13:21:11;5.80;;;4.30;;
3068;SDS011;1545;51.728;8.796;2022-08-03T13:23:38;8.50;;;4.75;;
3068;SDS011;1545;51.728;8.796;2022-08-03T13:26:03;5.63;;;3.95;;
3068;SDS011;1545;51.728;8.796;2022-08-03T13:28:29;8.48;;;4.40;;
3068;SDS011;1545;51.728;8.796;2022-08-03T13:30:54;9.02;;;4.25;;
3068;SDS011;1545;51.728;8.796;2022-08-03T13:33:20;8.77;;;4.55;;
3068;SDS011;1545;51.728;8.796;2022-08-03T13:35:46;10.77;;;4.30;;
3068;SDS011;1545;51.728;8.796;2022-08-03T13:38:11;17.15;;;4.47;;
3068;SDS011;1545;51.728;8.796;2022-08-03T13:40:37;9.80;;;4.40;;
3068;SDS011;1545;51.728;8.796;2022-08-03T13:43:02;12.18;;;4.63;;
3068;SDS011;1545;51.728;8.796;2022-08-03T13:45:28;11.52;;;4.88;;
3068;SDS011;1545;51.728;8.796;2022-08-03T13:47:53;12.80;;;5.00;;
3068;SDS011;1545;51.728;8.796;2022-08-03T13:50:19;13.70;;;4.40;;
3068;SDS011;1545;51.728;8.796;2022-08-03T13:52:44;8.68;;;4.00;;
3068;SDS011;1545;51.728;8.796;2022-08-03T13:55:11;10.25;;;4.55;;
3068;SDS011;1545;51.728;8.796;2022-08-03T13:57:36;7.40;;;4.63;;
3068;SDS011;1545;51.728;8.796;2022-08-03T14:00:05;10.38;;;4.65;;
3068;SDS011;1545;51.728;8.796;2022-08-03T14:02:31;12.32;;;4.60;;
3068;SDS011;1545;51.728;8.796;2022-08-03T14:04:57;9.43;;;4.93;;
3068;SDS011;1545;51.728;8.796;2022-08-03T14:07:22;10.45;;;4.35;;
3068;SDS011;1545;51.728;8.796;2022-08-03T14:09:48;7.70;;;4.63;;
3068;SDS011;1545;51.728;8.796;2022-08-03T14:12:13;8.60;;;4.35;;
3068;SDS011;1545;51.728;8.796;2022-08-03T14:14:39;7.72;;;4.07;;
3068;SDS011;1545;51.728;8.796;2022-08-03T14:17:05;8.43;;;4.20;;
3068;SDS011;1545;51.728;8.796;2022-08-03T14:19:31;7.22;;;4.18;;
3068;SDS011;1545;51.728;8.796;2022-08-03T14:21:56;8.90;;;4.60;;
3068;SDS011;1545;51.728;8.796;2022-08-03T14:24:22;8.52;;;4.32;;
3068;SDS011;1545;51.728;8.796;2022-08-03T14:26:47;7.47;;;3.90;;
3068;SDS011;1545;51.728;8.796;2022-08-03T14:29:13;9.73;;;4.20;;
3068;SDS011;1545;51.728;8.796;2022-08-03T14:31:38;9.07;;;4.57;;
3068;SDS011;1545;51.728;8.796;2022-08-03T14:34:04;6.30;;;3.67;;
3068;SDS011;1545;51.728;8.796;2022-08-03T14:36:29;8.45;;;3.72;;
3068;SDS011;1545;51.728;8.796;2022-08-03T14:38:55;6.15;;;4.00;;
3068;SDS011;1545;51.728;8.796;2022-08-03T14:41:21;6.40;;;4.20;;
3068;SDS011;1545;51.728;8.796;2022-08-03T14:43:46;6.93;;;3.67;;
3068;SDS011;1545;51.728;8.796;2022-08-03T14:46:12;6.20;;;3.70;;
3068;SDS011;1545;51.728;8.796;2022-08-03T14:48:37;9.38;;;3.95;;
3068;SDS011;1545;51.728;8.796;2022-08-03T14:51:03;5.90;;;3.60;;
3068;SDS011;1545;51.728;8.796;2022-08-03T14:53:29;11.27;;;4.10;;
3068;SDS011;1545;51.728;8.796;2022-08-03T14:55:54;8.90;;;3.67;;
3068;SDS011;1545;51.728;8.796;2022-08-03T14:58:21;5.20;;;3.40;;
3068;SDS011;1545;51.728;8.796;2022-08-03T15:00:47;5.15;;;3.55;;
3068;SDS011;1545;51.728;8.796;2022-08-03T15:03:13;8.45;;;3.55;;
3068;SDS011;1545;51.728;8.796;2022-08-03T15:05:39;7.88;;;3.47;;
3068;SDS011;1545;51.728;8.796;2022-08-03T15:08:05;8.02;;;3.75;;
3068;SDS011;1545;51.728;8.796;2022-08-03T15:10:30;6.95;;;3.60;;
3068;SDS011;1545;51.728;8.796;2022-08-03T15:12:56;7.70;;;3.55;;
3068;SDS011;1545;51.728;8.796;2022-08-03T15:15:21;9.40;;;3.70;;
3068;SDS011;1545;51.728;8.796;2022-08-03T15:17:47;9.13;;;3.38;;
3068;SDS011;1545;51.728;8.796;2022-08-03T15:20:13;9.93;;;3.80;;
3068;SDS011;1545;51.728;8.796;2022-08-03T15:22:38;6.18;;;3.67;;
3068;SDS011;1545;51.728;8.796;2022-08-03T15:25:05;5.80;;;3.47;;
3068;SDS011;1545;51.728;8.796;2022-08-03T15:27:31;13.18;;;3.40;;
3068;SDS011;1545;51.728;8.796;2022-08-03T15:29:56;7.72;;;4.03;;
3068;SDS011;1545;51.728;8.796;2022-08-03T15:32:22;9.25;;;3.97;;
3068;SDS011;1545;51.728;8.796;2022-08-03T15:34:47;8.75;;;3.65;;
3068;SDS011;1545;51.728;8.796;2022-08-03T15:37:13;8.93;;;3.55;;
3068;SDS011;1545;51.728;8.796;2022-08-03T15:39:38;8.05;;;3.45;;
3068;SDS011;1545;51.728;8.796;2022-08-03T15:42:04;9.60;;;3.90;;
3068;SDS011;1545;51.728;8.796;2022-08-03T15:44:29;8.63;;;3.88;;
3068;SDS011;1545;51.728;8.796;2022-08-03T15:46:55;5.45;;;3.70;;
3068;SDS011;1545;51.728;8.796;2022-08-03T15:49:20;6.55;;;3.50;;
3068;SDS011;1545;51.728;8.796;2022-08-03T15:51:46;8.40;;;3.60;;
3068;SDS011;1545;51.728;8.796;2022-08-03T15:54:12;8.00;;;3.92;;
3068;SDS011;1545;51.728;8.796;2022-08-03T15:56:37;9.80;;;3.53;;